Lhanbryd, United Kingdom
Current Conditions -  °F | °C
As of 3:50 PM on Thursday 27 Nov 2014 (Local Time) from EGQS Reporting Station
Haze Haze  
Wind Chill:   Ceiling: 5000
Heat Index:   Visibility: 5mi
Dew Point:   Wind: 7mph
Humidity: 93%   Direction: 100°E
Pressure: 29.62"   Gusts: NA
Location:  57.62°N, 3.22°W
Report Text: EGQS 271550Z 10006KT 8000 HZ FEW005 BKN050 BKN110 08/07 Q1003 BLU TEMPO SCT012 GRN
Loading
Personal Weather Stations






























Interactive Weather Map New forecast layout! Learn more

10-Day Weather Forecast

Advertisements
Track Severe Weather on mobile